sensor_id;sensor_type;location;lat;lon;timestamp;P1;durP1;ratioP1;P2;durP2;ratioP2
14268;SDS011;7218;51.480;7.006;2023-07-02T00:01:15;7.78;;;3.67;;
14268;SDS011;7218;51.480;7.006;2023-07-02T00:03:42;5.68;;;3.60;;
14268;SDS011;7218;51.480;7.006;2023-07-02T00:06:08;3.97;;;3.10;;
14268;SDS011;7218;51.480;7.006;2023-07-02T00:08:34;5.97;;;3.50;;
14268;SDS011;7218;51.480;7.006;2023-07-02T00:11:01;5.95;;;3.38;;
14268;SDS011;7218;51.480;7.006;2023-07-02T00:13:27;4.10;;;3.20;;
14268;SDS011;7218;51.480;7.006;2023-07-02T00:15:55;7.40;;;3.70;;
14268;SDS011;7218;51.480;7.006;2023-07-02T00:18:23;5.93;;;3.85;;
14268;SDS011;7218;51.480;7.006;2023-07-02T00:20:58;9.88;;;3.95;;
14268;SDS011;7218;51.480;7.006;2023-07-02T00:23:25;5.78;;;3.97;;
14268;SDS011;7218;51.480;7.006;2023-07-02T00:25:52;4.25;;;3.60;;
14268;SDS011;7218;51.480;7.006;2023-07-02T00:28:18;7.30;;;3.88;;
14268;SDS011;7218;51.480;7.006;2023-07-02T00:30:45;5.93;;;3.50;;
14268;SDS011;7218;51.480;7.006;2023-07-02T00:33:13;5.22;;;3.55;;
14268;SDS011;7218;51.480;7.006;2023-07-02T00:35:39;10.48;;;4.10;;
14268;SDS011;7218;51.480;7.006;2023-07-02T00:38:06;5.68;;;4.00;;
14268;SDS011;7218;51.480;7.006;2023-07-02T00:40:32;5.80;;;3.83;;
14268;SDS011;7218;51.480;7.006;2023-07-02T00:42:58;5.72;;;3.80;;
14268;SDS011;7218;51.480;7.006;2023-07-02T00:45:25;6.03;;;3.55;;
14268;SDS011;7218;51.480;7.006;2023-07-02T00:47:53;8.30;;;3.97;;
14268;SDS011;7218;51.480;7.006;2023-07-02T00:50:21;6.40;;;3.80;;
14268;SDS011;7218;51.480;7.006;2023-07-02T00:52:49;8.73;;;4.15;;
14268;SDS011;7218;51.480;7.006;2023-07-02T00:55:15;10.55;;;4.10;;
14268;SDS011;7218;51.480;7.006;2023-07-02T00:57:42;7.28;;;4.20;;
14268;SDS011;7218;51.480;7.006;2023-07-02T01:00:11;6.15;;;3.88;;
14268;SDS011;7218;51.480;7.006;2023-07-02T01:02:38;7.13;;;3.88;;
14268;SDS011;7218;51.480;7.006;2023-07-02T01:05:09;9.23;;;4.20;;
14268;SDS011;7218;51.480;7.006;2023-07-02T01:07:37;7.85;;;3.90;;
14268;SDS011;7218;51.480;7.006;2023-07-02T01:10:03;12.15;;;4.20;;
14268;SDS011;7218;51.480;7.006;2023-07-02T01:12:30;7.47;;;3.75;;
14268;SDS011;7218;51.480;7.006;2023-07-02T01:14:57;8.80;;;3.78;;
14268;SDS011;7218;51.480;7.006;2023-07-02T01:17:28;7.75;;;3.75;;
14268;SDS011;7218;51.480;7.006;2023-07-02T01:20:08;8.27;;;3.67;;
14268;SDS011;7218;51.480;7.006;2023-07-02T01:22:36;6.75;;;4.00;;
14268;SDS011;7218;51.480;7.006;2023-07-02T01:25:03;9.80;;;4.25;;
14268;SDS011;7218;51.480;7.006;2023-07-02T01:27:33;11.25;;;3.80;;
14268;SDS011;7218;51.480;7.006;2023-07-02T01:30:01;7.18;;;4.20;;
14268;SDS011;7218;51.480;7.006;2023-07-02T01:32:28;9.23;;;4.03;;
14268;SDS011;7218;51.480;7.006;2023-07-02T01:34:56;7.07;;;4.18;;
14268;SDS011;7218;51.480;7.006;2023-07-02T01:37:25;5.53;;;3.95;;
14268;SDS011;7218;51.480;7.006;2023-07-02T01:39:51;8.38;;;4.38;;
14268;SDS011;7218;51.480;7.006;2023-07-02T01:42:18;9.23;;;4.25;;
14268;SDS011;7218;51.480;7.006;2023-07-02T01:44:46;8.90;;;4.50;;
14268;SDS011;7218;51.480;7.006;2023-07-02T01:47:14;7.50;;;4.20;;
14268;SDS011;7218;51.480;7.006;2023-07-02T01:49:41;6.82;;;4.60;;
14268;SDS011;7218;51.480;7.006;2023-07-02T01:52:08;8.73;;;4.22;;
14268;SDS011;7218;51.480;7.006;2023-07-02T01:54:35;7.38;;;4.32;;
14268;SDS011;7218;51.480;7.006;2023-07-02T01:57:02;7.75;;;4.38;;
14268;SDS011;7218;51.480;7.006;2023-07-02T01:59:29;8.05;;;4.30;;
14268;SDS011;7218;51.480;7.006;2023-07-02T02:01:56;10.13;;;4.65;;
14268;SDS011;7218;51.480;7.006;2023-07-02T02:04:22;8.32;;;4.85;;
14268;SDS011;7218;51.480;7.006;2023-07-02T02:06:49;11.07;;;4.88;;
14268;SDS011;7218;51.480;7.006;2023-07-02T02:09:17;12.05;;;5.00;;
14268;SDS011;7218;51.480;7.006;2023-07-02T02:11:45;7.90;;;5.15;;
14268;SDS011;7218;51.480;7.006;2023-07-02T02:14:14;10.60;;;5.10;;
14268;SDS011;7218;51.480;7.006;2023-07-02T02:16:40;8.68;;;4.80;;
14268;SDS011;7218;51.480;7.006;2023-07-02T02:19:07;8.15;;;4.78;;
14268;SDS011;7218;51.480;7.006;2023-07-02T02:21:33;9.32;;;4.72;;
14268;SDS011;7218;51.480;7.006;2023-07-02T02:24:00;12.18;;;5.30;;
14268;SDS011;7218;51.480;7.006;2023-07-02T02:26:26;9.02;;;4.95;;
14268;SDS011;7218;51.480;7.006;2023-07-02T02:28:54;9.85;;;5.38;;
14268;SDS011;7218;51.480;7.006;2023-07-02T02:31:20;12.10;;;5.55;;
14268;SDS011;7218;51.480;7.006;2023-07-02T02:33:47;9.07;;;5.47;;
14268;SDS011;7218;51.480;7.006;2023-07-02T02:36:13;10.57;;;5.43;;
14268;SDS011;7218;51.480;7.006;2023-07-02T02:38:40;10.30;;;5.50;;
14268;SDS011;7218;51.480;7.006;2023-07-02T02:41:07;12.02;;;5.72;;
14268;SDS011;7218;51.480;7.006;2023-07-02T02:43:34;10.25;;;5.57;;
14268;SDS011;7218;51.480;7.006;2023-07-02T02:46:02;11.38;;;6.25;;
14268;SDS011;7218;51.480;7.006;2023-07-02T02:48:28;15.05;;;6.45;;
14268;SDS011;7218;51.480;7.006;2023-07-02T02:50:55;13.30;;;6.10;;
14268;SDS011;7218;51.480;7.006;2023-07-02T02:53:21;11.23;;;5.72;;
14268;SDS011;7218;51.480;7.006;2023-07-02T02:55:47;12.70;;;6.90;;
14268;SDS011;7218;51.480;7.006;2023-07-02T02:58:14;10.98;;;6.05;;
14268;SDS011;7218;51.480;7.006;2023-07-02T03:00:40;12.48;;;6.15;;
14268;SDS011;7218;51.480;7.006;2023-07-02T03:03:11;11.85;;;6.22;;
14268;SDS011;7218;51.480;7.006;2023-07-02T03:05:38;12.88;;;6.82;;
14268;SDS011;7218;51.480;7.006;2023-07-02T03:08:05;12.40;;;7.13;;
14268;SDS011;7218;51.480;7.006;2023-07-02T03:10:31;15.80;;;7.03;;
14268;SDS011;7218;51.480;7.006;2023-07-02T03:12:57;13.75;;;7.25;;
14268;SDS011;7218;51.480;7.006;2023-07-02T03:15:24;13.27;;;7.50;;
14268;SDS011;7218;51.480;7.006;2023-07-02T03:17:50;20.33;;;8.02;;
14268;SDS011;7218;51.480;7.006;2023-07-02T03:20:18;16.73;;;7.72;;
14268;SDS011;7218;51.480;7.006;2023-07-02T03:22:45;18.73;;;8.93;;
14268;SDS011;7218;51.480;7.006;2023-07-02T03:25:11;15.02;;;8.05;;
14268;SDS011;7218;51.480;7.006;2023-07-02T03:27:37;16.17;;;8.63;;
14268;SDS011;7218;51.480;7.006;2023-07-02T03:30:04;13.90;;;8.07;;
14268;SDS011;7218;51.480;7.006;2023-07-02T03:32:32;18.65;;;7.97;;
14268;SDS011;7218;51.480;7.006;2023-07-02T03:34:58;16.40;;;8.60;;
14268;SDS011;7218;51.480;7.006;2023-07-02T03:37:27;15.48;;;8.45;;
14268;SDS011;7218;51.480;7.006;2023-07-02T03:39:54;16.30;;;9.05;;
14268;SDS011;7218;51.480;7.006;2023-07-02T03:42:20;18.85;;;9.10;;
14268;SDS011;7218;51.480;7.006;2023-07-02T03:44:46;15.38;;;8.75;;
14268;SDS011;7218;51.480;7.006;2023-07-02T03:47:13;17.42;;;9.18;;
14268;SDS011;7218;51.480;7.006;2023-07-02T03:49:41;20.63;;;9.57;;
14268;SDS011;7218;51.480;7.006;2023-07-02T03:52:07;15.90;;;9.25;;
14268;SDS011;7218;51.480;7.006;2023-07-02T03:54:35;17.17;;;9.43;;
14268;SDS011;7218;51.480;7.006;2023-07-02T03:57:02;18.88;;;9.50;;
14268;SDS011;7218;51.480;7.006;2023-07-02T03:59:28;16.33;;;9.75;;
14268;SDS011;7218;51.480;7.006;2023-07-02T04:01:55;17.85;;;10.07;;
14268;SDS011;7218;51.480;7.006;2023-07-02T04:04:21;18.20;;;9.23;;
14268;SDS011;7218;51.480;7.006;2023-07-02T04:06:48;15.57;;;8.95;;
14268;SDS011;7218;51.480;7.006;2023-07-02T04:09:14;15.63;;;9.75;;
14268;SDS011;7218;51.480;7.006;2023-07-02T04:11:42;19.65;;;10.65;;
14268;SDS011;7218;51.480;7.006;2023-07-02T04:14:09;23.77;;;11.07;;
14268;SDS011;7218;51.480;7.006;2023-07-02T04:16:35;20.88;;;11.40;;
14268;SDS011;7218;51.480;7.006;2023-07-02T04:19:01;22.05;;;11.57;;
14268;SDS011;7218;51.480;7.006;2023-07-02T04:21:28;21.13;;;11.68;;
14268;SDS011;7218;51.480;7.006;2023-07-02T04:23:55;22.23;;;11.48;;
14268;SDS011;7218;51.480;7.006;2023-07-02T04:26:21;23.55;;;11.95;;
14268;SDS011;7218;51.480;7.006;2023-07-02T04:28:53;22.02;;;11.57;;
14268;SDS011;7218;51.480;7.006;2023-07-02T04:31:19;21.92;;;10.70;;
14268;SDS011;7218;51.480;7.006;2023-07-02T04:33:46;21.13;;;11.07;;
14268;SDS011;7218;51.480;7.006;2023-07-02T04:36:12;20.92;;;11.10;;
14268;SDS011;7218;51.480;7.006;2023-07-02T04:38:39;24.52;;;12.30;;
14268;SDS011;7218;51.480;7.006;2023-07-02T04:41:05;21.73;;;11.38;;
14268;SDS011;7218;51.480;7.006;2023-07-02T04:43:35;21.10;;;11.30;;
14268;SDS011;7218;51.480;7.006;2023-07-02T04:46:03;23.65;;;12.10;;
14268;SDS011;7218;51.480;7.006;2023-07-02T04:48:32;22.08;;;11.25;;
14268;SDS011;7218;51.480;7.006;2023-07-02T04:50:58;23.48;;;12.13;;
14268;SDS011;7218;51.480;7.006;2023-07-02T04:53:24;23.48;;;11.90;;
14268;SDS011;7218;51.480;7.006;2023-07-02T04:55:51;21.95;;;12.15;;
14268;SDS011;7218;51.480;7.006;2023-07-02T04:58:17;23.98;;;12.23;;
14268;SDS011;7218;51.480;7.006;2023-07-02T05:00:44;19.90;;;12.15;;
14268;SDS011;7218;51.480;7.006;2023-07-02T05:03:12;24.55;;;13.05;;
14268;SDS011;7218;51.480;7.006;2023-07-02T05:05:38;20.60;;;11.70;;
14268;SDS011;7218;51.480;7.006;2023-07-02T05:08:04;22.95;;;12.40;;
14268;SDS011;7218;51.480;7.006;2023-07-02T05:10:31;21.77;;;12.10;;
14268;SDS011;7218;51.480;7.006;2023-07-02T05:12:57;20.70;;;11.75;;
14268;SDS011;7218;51.480;7.006;2023-07-02T05:15:24;23.67;;;12.23;;
14268;SDS011;7218;51.480;7.006;2023-07-02T05:17:51;24.77;;;11.80;;
14268;SDS011;7218;51.480;7.006;2023-07-02T05:20:19;25.10;;;12.60;;
14268;SDS011;7218;51.480;7.006;2023-07-02T05:22:45;20.95;;;12.20;;
14268;SDS011;7218;51.480;7.006;2023-07-02T05:25:11;23.75;;;12.55;;
14268;SDS011;7218;51.480;7.006;2023-07-02T05:27:38;27.73;;;12.73;;
14268;SDS011;7218;51.480;7.006;2023-07-02T05:30:05;25.05;;;12.55;;
14268;SDS011;7218;51.480;7.006;2023-07-02T05:32:33;23.33;;;12.80;;
14268;SDS011;7218;51.480;7.006;2023-07-02T05:35:00;26.90;;;12.57;;
14268;SDS011;7218;51.480;7.006;2023-07-02T05:37:28;23.50;;;13.10;;
14268;SDS011;7218;51.480;7.006;2023-07-02T05:39:54;25.77;;;13.43;;
14268;SDS011;7218;51.480;7.006;2023-07-02T05:42:21;24.92;;;12.77;;
14268;SDS011;7218;51.480;7.006;2023-07-02T05:44:47;25.75;;;12.88;;
14268;SDS011;7218;51.480;7.006;2023-07-02T05:47:14;23.35;;;12.77;;
14268;SDS011;7218;51.480;7.006;2023-07-02T05:49:40;21.55;;;12.07;;
14268;SDS011;7218;51.480;7.006;2023-07-02T05:52:07;23.77;;;13.30;;
14268;SDS011;7218;51.480;7.006;2023-07-02T05:54:38;22.42;;;11.95;;
14268;SDS011;7218;51.480;7.006;2023-07-02T05:57:05;22.83;;;12.75;;
14268;SDS011;7218;51.480;7.006;2023-07-02T05:59:31;22.80;;;12.55;;
14268;SDS011;7218;51.480;7.006;2023-07-02T06:01:58;22.80;;;12.93;;
14268;SDS011;7218;51.480;7.006;2023-07-02T06:04:24;22.50;;;12.68;;
14268;SDS011;7218;51.480;7.006;2023-07-02T06:06:51;22.95;;;12.10;;
14268;SDS011;7218;51.480;7.006;2023-07-02T06:09:17;22.25;;;11.75;;
14268;SDS011;7218;51.480;7.006;2023-07-02T06:11:45;25.58;;;12.05;;
14268;SDS011;7218;51.480;7.006;2023-07-02T06:14:11;21.23;;;12.05;;
14268;SDS011;7218;51.480;7.006;2023-07-02T06:16:38;25.10;;;12.52;;
14268;SDS011;7218;51.480;7.006;2023-07-02T06:19:04;22.30;;;11.90;;
14268;SDS011;7218;51.480;7.006;2023-07-02T06:21:30;21.63;;;10.95;;
14268;SDS011;7218;51.480;7.006;2023-07-02T06:23:57;27.58;;;12.23;;
14268;SDS011;7218;51.480;7.006;2023-07-02T06:26:24;21.15;;;11.20;;
14268;SDS011;7218;51.480;7.006;2023-07-02T06:28:52;18.77;;;11.30;;
14268;SDS011;7218;51.480;7.006;2023-07-02T06:31:18;20.48;;;11.27;;
14268;SDS011;7218;51.480;7.006;2023-07-02T06:33:44;21.52;;;11.57;;
14268;SDS011;7218;51.480;7.006;2023-07-02T06:36:12;24.77;;;10.90;;
14268;SDS011;7218;51.480;7.006;2023-07-02T06:38:39;22.92;;;11.43;;
14268;SDS011;7218;51.480;7.006;2023-07-02T06:41:06;24.20;;;11.32;;
14268;SDS011;7218;51.480;7.006;2023-07-02T06:43:32;19.13;;;9.98;;
14268;SDS011;7218;51.480;7.006;2023-07-02T06:46:00;22.30;;;10.13;;
14268;SDS011;7218;51.480;7.006;2023-07-02T06:48:26;22.83;;;9.95;;
14268;SDS011;7218;51.480;7.006;2023-07-02T06:50:53;18.67;;;9.48;;
14268;SDS011;7218;51.480;7.006;2023-07-02T06:53:19;18.65;;;9.48;;
14268;SDS011;7218;51.480;7.006;2023-07-02T06:55:45;18.77;;;9.63;;
14268;SDS011;7218;51.480;7.006;2023-07-02T06:58:12;17.05;;;9.60;;
14268;SDS011;7218;51.480;7.006;2023-07-02T07:00:38;19.00;;;10.00;;
14268;SDS011;7218;51.480;7.006;2023-07-02T07:03:06;21.27;;;10.18;;
14268;SDS011;7218;51.480;7.006;2023-07-02T07:05:33;18.65;;;9.57;;
14268;SDS011;7218;51.480;7.006;2023-07-02T07:07:59;21.52;;;10.27;;
14268;SDS011;7218;51.480;7.006;2023-07-02T07:10:26;21.77;;;10.32;;
14268;SDS011;7218;51.480;7.006;2023-07-02T07:12:53;19.08;;;9.98;;
14268;SDS011;7218;51.480;7.006;2023-07-02T07:15:19;19.50;;;9.80;;
14268;SDS011;7218;51.480;7.006;2023-07-02T07:17:46;19.05;;;9.73;;
14268;SDS011;7218;51.480;7.006;2023-07-02T07:20:14;18.15;;;9.27;;
14268;SDS011;7218;51.480;7.006;2023-07-02T07:22:40;16.13;;;9.45;;
14268;SDS011;7218;51.480;7.006;2023-07-02T07:25:07;19.50;;;9.77;;
14268;SDS011;7218;51.480;7.006;2023-07-02T07:27:34;18.52;;;9.43;;
14268;SDS011;7218;51.480;7.006;2023-07-02T07:30:01;19.83;;;10.23;;
14268;SDS011;7218;51.480;7.006;2023-07-02T07:32:28;16.45;;;9.55;;
14268;SDS011;7218;51.480;7.006;2023-07-02T07:34:54;19.73;;;9.13;;
14268;SDS011;7218;51.480;7.006;2023-07-02T07:37:22;19.27;;;8.98;;
14268;SDS011;7218;51.480;7.006;2023-07-02T07:39:50;18.42;;;8.88;;
14268;SDS011;7218;51.480;7.006;2023-07-02T07:42:16;16.92;;;9.05;;
14268;SDS011;7218;51.480;7.006;2023-07-02T07:44:44;21.65;;;9.50;;
14268;SDS011;7218;51.480;7.006;2023-07-02T07:47:10;19.05;;;8.85;;
14268;SDS011;7218;51.480;7.006;2023-07-02T07:49:37;16.52;;;8.68;;
14268;SDS011;7218;51.480;7.006;2023-07-02T07:52:04;19.05;;;8.75;;
14268;SDS011;7218;51.480;7.006;2023-07-02T07:54:33;17.25;;;8.50;;
14268;SDS011;7218;51.480;7.006;2023-07-02T07:57:00;15.60;;;8.43;;
14268;SDS011;7218;51.480;7.006;2023-07-02T07:59:27;16.42;;;8.05;;
14268;SDS011;7218;51.480;7.006;2023-07-02T08:01:53;17.55;;;7.55;;
14268;SDS011;7218;51.480;7.006;2023-07-02T08:04:19;15.35;;;8.13;;
14268;SDS011;7218;51.480;7.006;2023-07-02T08:06:46;17.25;;;8.23;;
14268;SDS011;7218;51.480;7.006;2023-07-02T08:09:12;17.02;;;8.13;;
14268;SDS011;7218;51.480;7.006;2023-07-02T08:11:40;16.15;;;8.02;;
14268;SDS011;7218;51.480;7.006;2023-07-02T08:14:07;12.57;;;7.53;;
14268;SDS011;7218;51.480;7.006;2023-07-02T08:16:33;17.40;;;8.07;;
14268;SDS011;7218;51.480;7.006;2023-07-02T08:19:01;19.85;;;8.55;;
14268;SDS011;7218;51.480;7.006;2023-07-02T08:21:28;18.02;;;8.40;;
14268;SDS011;7218;51.480;7.006;2023-07-02T08:23:54;15.55;;;8.10;;
14268;SDS011;7218;51.480;7.006;2023-07-02T08:26:22;15.15;;;8.13;;
14268;SDS011;7218;51.480;7.006;2023-07-02T08:28:50;17.25;;;7.97;;
14268;SDS011;7218;51.480;7.006;2023-07-02T08:31:17;17.08;;;7.68;;
14268;SDS011;7218;51.480;7.006;2023-07-02T08:33:43;15.77;;;7.03;;
14268;SDS011;7218;51.480;7.006;2023-07-02T08:36:09;12.85;;;6.75;;
14268;SDS011;7218;51.480;7.006;2023-07-02T08:38:36;14.32;;;6.90;;
14268;SDS011;7218;51.480;7.006;2023-07-02T08:41:04;16.65;;;7.35;;
14268;SDS011;7218;51.480;7.006;2023-07-02T08:43:31;15.13;;;6.97;;
14268;SDS011;7218;51.480;7.006;2023-07-02T08:45:59;16.27;;;7.07;;
14268;SDS011;7218;51.480;7.006;2023-07-02T08:48:25;17.20;;;7.20;;
14268;SDS011;7218;51.480;7.006;2023-07-02T08:50:54;15.85;;;6.78;;
14268;SDS011;7218;51.480;7.006;2023-07-02T08:53:20;11.50;;;6.32;;
14268;SDS011;7218;51.480;7.006;2023-07-02T08:55:50;15.38;;;6.60;;
14268;SDS011;7218;51.480;7.006;2023-07-02T08:58:17;10.93;;;6.22;;
14268;SDS011;7218;51.480;7.006;2023-07-02T09:03:33;10.90;;;6.15;;
14268;SDS011;7218;51.480;7.006;2023-07-02T09:05:59;16.15;;;6.63;;
14268;SDS011;7218;51.480;7.006;2023-07-02T09:08:26;10.38;;;6.28;;
14268;SDS011;7218;51.480;7.006;2023-07-02T09:10:53;10.55;;;6.13;;
14268;SDS011;7218;51.480;7.006;2023-07-02T09:13:20;13.02;;;6.47;;
14268;SDS011;7218;51.480;7.006;2023-07-02T09:15:46;10.90;;;6.00;;
14268;SDS011;7218;51.480;7.006;2023-07-02T09:18:20;12.40;;;6.55;;
14268;SDS011;7218;51.480;7.006;2023-07-02T09:20:53;12.43;;;5.90;;
14268;SDS011;7218;51.480;7.006;2023-07-02T09:23:20;15.48;;;6.25;;
14268;SDS011;7218;51.480;7.006;2023-07-02T09:25:47;13.27;;;6.93;;
14268;SDS011;7218;51.480;7.006;2023-07-02T09:28:14;14.23;;;6.32;;
14268;SDS011;7218;51.480;7.006;2023-07-02T09:30:51;11.73;;;6.10;;
14268;SDS011;7218;51.480;7.006;2023-07-02T09:33:18;11.63;;;5.78;;
14268;SDS011;7218;51.480;7.006;2023-07-02T09:35:46;13.57;;;6.38;;
14268;SDS011;7218;51.480;7.006;2023-07-02T09:38:13;14.30;;;6.93;;
14268;SDS011;7218;51.480;7.006;2023-07-02T09:40:44;13.68;;;6.85;;
14268;SDS011;7218;51.480;7.006;2023-07-02T09:43:11;13.10;;;6.90;;
14268;SDS011;7218;51.480;7.006;2023-07-02T09:45:40;15.20;;;7.07;;
14268;SDS011;7218;51.480;7.006;2023-07-02T09:48:09;11.75;;;6.88;;
14268;SDS011;7218;51.480;7.006;2023-07-02T09:50:40;14.70;;;6.75;;
14268;SDS011;7218;51.480;7.006;2023-07-02T09:53:08;14.50;;;6.75;;
14268;SDS011;7218;51.480;7.006;2023-07-02T09:55:34;15.20;;;7.15;;
14268;SDS011;7218;51.480;7.006;2023-07-02T09:58:01;14.95;;;7.38;;
14268;SDS011;7218;51.480;7.006;2023-07-02T10:00:27;13.77;;;7.50;;
14268;SDS011;7218;51.480;7.006;2023-07-02T10:02:54;15.88;;;7.60;;
14268;SDS011;7218;51.480;7.006;2023-07-02T10:05:27;17.27;;;7.07;;
14268;SDS011;7218;51.480;7.006;2023-07-02T10:07:57;13.00;;;7.00;;
14268;SDS011;7218;51.480;7.006;2023-07-02T10:10:27;13.38;;;6.63;;
14268;SDS011;7218;51.480;7.006;2023-07-02T10:12:55;12.95;;;6.40;;
14268;SDS011;7218;51.480;7.006;2023-07-02T10:15:25;13.02;;;6.50;;
14268;SDS011;7218;51.480;7.006;2023-07-02T10:17:55;14.23;;;6.40;;
14268;SDS011;7218;51.480;7.006;2023-07-02T10:20:30;10.98;;;5.95;;
14268;SDS011;7218;51.480;7.006;2023-07-02T10:23:00;10.80;;;6.20;;
14268;SDS011;7218;51.480;7.006;2023-07-02T10:25:27;11.45;;;5.78;;
14268;SDS011;7218;51.480;7.006;2023-07-02T10:27:55;10.32;;;6.30;;
14268;SDS011;7218;51.480;7.006;2023-07-02T10:30:30;12.90;;;6.72;;
14268;SDS011;7218;51.480;7.006;2023-07-02T10:33:06;12.00;;;6.32;;
14268;SDS011;7218;51.480;7.006;2023-07-02T10:35:34;12.30;;;5.85;;
14268;SDS011;7218;51.480;7.006;2023-07-02T10:38:01;13.18;;;6.07;;
14268;SDS011;7218;51.480;7.006;2023-07-02T10:40:29;11.10;;;5.60;;
14268;SDS011;7218;51.480;7.006;2023-07-02T10:42:55;13.45;;;6.40;;
14268;SDS011;7218;51.480;7.006;2023-07-02T10:45:30;10.32;;;6.07;;
14268;SDS011;7218;51.480;7.006;2023-07-02T10:47:57;11.25;;;6.20;;
14268;SDS011;7218;51.480;7.006;2023-07-02T10:50:24;10.45;;;6.07;;
14268;SDS011;7218;51.480;7.006;2023-07-02T10:52:52;12.52;;;7.32;;
14268;SDS011;7218;51.480;7.006;2023-07-02T10:55:21;11.05;;;6.35;;
14268;SDS011;7218;51.480;7.006;2023-07-02T10:57:50;10.98;;;6.32;;
14268;SDS011;7218;51.480;7.006;2023-07-02T11:00:29;12.43;;;6.43;;
14268;SDS011;7218;51.480;7.006;2023-07-02T11:02:55;13.52;;;7.03;;
14268;SDS011;7218;51.480;7.006;2023-07-02T11:05:22;11.40;;;6.07;;
14268;SDS011;7218;51.480;7.006;2023-07-02T11:07:48;10.57;;;6.13;;
14268;SDS011;7218;51.480;7.006;2023-07-02T11:10:23;12.65;;;5.43;;
14268;SDS011;7218;51.480;7.006;2023-07-02T11:12:51;10.98;;;5.68;;
14268;SDS011;7218;51.480;7.006;2023-07-02T11:15:17;14.50;;;6.65;;
14268;SDS011;7218;51.480;7.006;2023-07-02T11:17:44;9.60;;;5.85;;
14268;SDS011;7218;51.480;7.006;2023-07-02T11:20:11;14.85;;;6.35;;
14268;SDS011;7218;51.480;7.006;2023-07-02T11:22:39;13.13;;;6.05;;
14268;SDS011;7218;51.480;7.006;2023-07-02T11:25:12;9.57;;;5.28;;
14268;SDS011;7218;51.480;7.006;2023-07-02T11:27:40;16.10;;;5.85;;
14268;SDS011;7218;51.480;7.006;2023-07-02T11:30:07;13.68;;;6.57;;
14268;SDS011;7218;51.480;7.006;2023-07-02T11:32:46;11.65;;;6.35;;
14268;SDS011;7218;51.480;7.006;2023-07-02T11:35:14;9.52;;;5.55;;
14268;SDS011;7218;51.480;7.006;2023-07-02T11:37:41;12.32;;;6.50;;
14268;SDS011;7218;51.480;7.006;2023-07-02T11:40:08;11.35;;;6.43;;
14268;SDS011;7218;51.480;7.006;2023-07-02T11:42:35;11.90;;;6.07;;
14268;SDS011;7218;51.480;7.006;2023-07-02T11:45:03;9.35;;;5.55;;
14268;SDS011;7218;51.480;7.006;2023-07-02T11:47:30;10.07;;;5.93;;
14268;SDS011;7218;51.480;7.006;2023-07-02T11:49:57;11.60;;;5.45;;
14268;SDS011;7218;51.480;7.006;2023-07-02T11:52:24;10.43;;;5.93;;
14268;SDS011;7218;51.480;7.006;2023-07-02T11:54:50;9.35;;;5.65;;
14268;SDS011;7218;51.480;7.006;2023-07-02T11:57:17;10.43;;;5.60;;
14268;SDS011;7218;51.480;7.006;2023-07-02T11:59:43;11.30;;;5.20;;
14268;SDS011;7218;51.480;7.006;2023-07-02T12:02:11;10.18;;;5.57;;
14268;SDS011;7218;51.480;7.006;2023-07-02T12:04:38;8.93;;;4.95;;
14268;SDS011;7218;51.480;7.006;2023-07-02T12:07:05;11.27;;;5.13;;
14268;SDS011;7218;51.480;7.006;2023-07-02T12:09:31;10.82;;;5.20;;
14268;SDS011;7218;51.480;7.006;2023-07-02T12:11:57;11.40;;;5.38;;
14268;SDS011;7218;51.480;7.006;2023-07-02T12:14:24;9.32;;;5.68;;
14268;SDS011;7218;51.480;7.006;2023-07-02T12:16:50;13.35;;;5.43;;
14268;SDS011;7218;51.480;7.006;2023-07-02T12:19:18;10.07;;;5.35;;
14268;SDS011;7218;51.480;7.006;2023-07-02T12:21:45;10.50;;;5.13;;
14268;SDS011;7218;51.480;7.006;2023-07-02T12:24:11;8.63;;;5.07;;
14268;SDS011;7218;51.480;7.006;2023-07-02T12:26:38;10.55;;;6.25;;
14268;SDS011;7218;51.480;7.006;2023-07-02T12:29:05;12.32;;;6.00;;
14268;SDS011;7218;51.480;7.006;2023-07-02T12:31:32;10.98;;;6.30;;
14268;SDS011;7218;51.480;7.006;2023-07-02T12:33:58;10.82;;;5.53;;
14268;SDS011;7218;51.480;7.006;2023-07-02T12:36:26;13.85;;;9.77;;
14268;SDS011;7218;51.480;7.006;2023-07-02T12:38:53;15.32;;;8.80;;
14268;SDS011;7218;51.480;7.006;2023-07-02T12:41:19;11.57;;;6.85;;
14268;SDS011;7218;51.480;7.006;2023-07-02T12:43:46;13.82;;;8.98;;
14268;SDS011;7218;51.480;7.006;2023-07-02T12:46:12;15.60;;;9.65;;
14268;SDS011;7218;51.480;7.006;2023-07-02T12:48:38;14.88;;;8.45;;
14268;SDS011;7218;51.480;7.006;2023-07-02T12:51:05;10.25;;;5.85;;
14268;SDS011;7218;51.480;7.006;2023-07-02T12:53:32;10.02;;;6.03;;
14268;SDS011;7218;51.480;7.006;2023-07-02T12:55:59;11.75;;;5.90;;
14268;SDS011;7218;51.480;7.006;2023-07-02T12:58:25;10.45;;;5.55;;
14268;SDS011;7218;51.480;7.006;2023-07-02T13:00:52;11.40;;;5.55;;
14268;SDS011;7218;51.480;7.006;2023-07-02T13:03:20;9.43;;;5.65;;
14268;SDS011;7218;51.480;7.006;2023-07-02T13:05:48;13.40;;;5.68;;
14268;SDS011;7218;51.480;7.006;2023-07-02T13:08:14;12.02;;;6.50;;
14268;SDS011;7218;51.480;7.006;2023-07-02T13:10:42;11.20;;;6.07;;
14268;SDS011;7218;51.480;7.006;2023-07-02T13:13:09;12.07;;;7.35;;
14268;SDS011;7218;51.480;7.006;2023-07-02T13:15:35;13.55;;;7.85;;
14268;SDS011;7218;51.480;7.006;2023-07-02T13:18:03;11.07;;;5.97;;
14268;SDS011;7218;51.480;7.006;2023-07-02T13:20:30;9.90;;;6.25;;
14268;SDS011;7218;51.480;7.006;2023-07-02T13:22:56;10.38;;;6.57;;
14268;SDS011;7218;51.480;7.006;2023-07-02T13:25:24;12.95;;;6.20;;
14268;SDS011;7218;51.480;7.006;2023-07-02T13:27:51;11.68;;;6.07;;
14268;SDS011;7218;51.480;7.006;2023-07-02T13:30:18;14.05;;;8.00;;
14268;SDS011;7218;51.480;7.006;2023-07-02T13:32:44;13.63;;;7.80;;
14268;SDS011;7218;51.480;7.006;2023-07-02T13:35:11;11.00;;;6.43;;
14268;SDS011;7218;51.480;7.006;2023-07-02T13:37:37;10.57;;;6.63;;
14268;SDS011;7218;51.480;7.006;2023-07-02T13:40:04;10.52;;;6.30;;
14268;SDS011;7218;51.480;7.006;2023-07-02T13:42:33;14.13;;;6.60;;
14268;SDS011;7218;51.480;7.006;2023-07-02T13:45:01;10.25;;;6.80;;
14268;SDS011;7218;51.480;7.006;2023-07-02T13:47:27;13.45;;;7.25;;
14268;SDS011;7218;51.480;7.006;2023-07-02T13:49:54;11.60;;;6.07;;
14268;SDS011;7218;51.480;7.006;2023-07-02T13:52:20;12.27;;;6.80;;
14268;SDS011;7218;51.480;7.006;2023-07-02T13:54:47;15.73;;;7.68;;
14268;SDS011;7218;51.480;7.006;2023-07-02T13:57:13;12.43;;;7.55;;
14268;SDS011;7218;51.480;7.006;2023-07-02T13:59:41;15.00;;;7.22;;
14268;SDS011;7218;51.480;7.006;2023-07-02T14:02:08;10.77;;;7.10;;
14268;SDS011;7218;51.480;7.006;2023-07-02T14:04:34;13.73;;;7.22;;
14268;SDS011;7218;51.480;7.006;2023-07-02T14:07:02;15.98;;;7.78;;
14268;SDS011;7218;51.480;7.006;2023-07-02T14:09:29;16.52;;;9.73;;
14268;SDS011;7218;51.480;7.006;2023-07-02T14:11:55;12.82;;;7.07;;
14268;SDS011;7218;51.480;7.006;2023-07-02T14:14:22;13.00;;;7.20;;
14268;SDS011;7218;51.480;7.006;2023-07-02T14:16:49;13.07;;;7.57;;
14268;SDS011;7218;51.480;7.006;2023-07-02T14:19:16;17.52;;;10.48;;
14268;SDS011;7218;51.480;7.006;2023-07-02T14:21:43;19.25;;;9.20;;
14268;SDS011;7218;51.480;7.006;2023-07-02T14:24:11;18.35;;;8.60;;
14268;SDS011;7218;51.480;7.006;2023-07-02T14:26:38;12.93;;;6.90;;
14268;SDS011;7218;51.480;7.006;2023-07-02T14:29:05;14.68;;;7.65;;
14268;SDS011;7218;51.480;7.006;2023-07-02T14:31:31;24.48;;;14.07;;
14268;SDS011;7218;51.480;7.006;2023-07-02T14:33:59;15.90;;;8.73;;
14268;SDS011;7218;51.480;7.006;2023-07-02T14:36:25;14.30;;;8.38;;
14268;SDS011;7218;51.480;7.006;2023-07-02T14:38:52;14.70;;;8.75;;
14268;SDS011;7218;51.480;7.006;2023-07-02T14:41:18;12.27;;;7.50;;
14268;SDS011;7218;51.480;7.006;2023-07-02T14:43:45;13.07;;;7.82;;
14268;SDS011;7218;51.480;7.006;2023-07-02T14:46:11;19.92;;;13.00;;
14268;SDS011;7218;51.480;7.006;2023-07-02T14:48:37;21.85;;;12.55;;
14268;SDS011;7218;51.480;7.006;2023-07-02T14:51:07;14.07;;;8.25;;